»·PEaware :: ASA103 KLAX-KSTS

ASA103 :: KLAX-KSTS

FLIGHT INFORMATION

Flight Status: Arrived
Operator:
Alaska Airlines
More flights by this operator :: More flights under this callsign
Pilot: Andrew C. (28419)
Aircraft: BOEING 737-800
(B738)
More flights by this aircraft type
Origin: KLAX Los Angeles Intl
United States
Destination: KSTS Sonoma Co
United States
More flights between these airports :: More routes between these airports
Route: +LADYJ4 COREZ RGOOD OAK SAU
File this flight plan on PilotEdge
Remarks: RMK / SIMBRIEF
Altitude:
(Current/Filed)
38,000ft
Speed:
(Current/Filed)
457kts
Departed: 13-Jun-20 10:29 AM
Arrived: 13-Jun-20 11:36 AM
Distance/Time
Traveled:
347nm/1:07
Distance/Time
To Go:
Arrived

Flight Plot

Page will automatically refresh every two minutes.

Flight plan parsing failed; only flown route is shown


Map Options




Map Legend


Flown Route
Filed Route
Departure Airport
Arrival Airport
Navaid (VOR, NDB)
Fix

Horizontal Profiles

Position Reports

Time Latitude Longitude Heading Altitude Ground
Speed
13-Jun-20 09:56 33.940438 -118.402525 85 116ft 0kts
13-Jun-20 09:57 33.940438 -118.402525 85 116ft 0kts
13-Jun-20 09:58 33.940438 -118.402525 85 116ft 0kts
13-Jun-20 09:59 33.940438 -118.402525 85 116ft 0kts
13-Jun-20 10:00 33.940438 -118.402526 85 115ft 0kts
13-Jun-20 10:01 33.940438 -118.402526 85 115ft 0kts
13-Jun-20 10:02 33.940438 -118.402526 85 115ft 0kts
13-Jun-20 10:03 33.940438 -118.402526 85 115ft 0kts
13-Jun-20 10:04 33.940438 -118.402526 85 115ft 0kts
13-Jun-20 10:05 33.940438 -118.402526 85 115ft 0kts
13-Jun-20 10:06 33.940438 -118.402526 85 115ft 0kts
13-Jun-20 10:07 33.940438 -118.402526 85 115ft 0kts
13-Jun-20 10:08 33.940438 -118.402526 85 115ft 0kts
13-Jun-20 10:09 33.940438 -118.402526 85 115ft 0kts
13-Jun-20 10:10 33.940438 -118.402526 85 115ft 0kts
13-Jun-20 10:11 33.940438 -118.402526 85 115ft 0kts
13-Jun-20 10:12 33.940438 -118.402526 85 115ft 0kts
13-Jun-20 10:13 33.940438 -118.402526 85 115ft 0kts
13-Jun-20 10:14 33.940438 -118.402526 85 115ft 0kts
13-Jun-20 10:15 33.940438 -118.402526 85 115ft 0kts
13-Jun-20 10:16 33.940438 -118.402526 85 115ft 0kts
13-Jun-20 10:17 33.940438 -118.402526 85 115ft 0kts
13-Jun-20 10:18 33.940427 -118.402698 85 115ft 2kts
13-Jun-20 10:19 33.940729 -118.403215 170 115ft 0kts
13-Jun-20 10:20 33.940802 -118.403225 173 115ft 0kts
13-Jun-20 10:21 33.940664 -118.403204 172 115ft 7kts
13-Jun-20 10:22 33.938602 -118.401791 83 115ft 11kts
13-Jun-20 10:23 33.939043 -118.397534 82 115ft 13kts
13-Jun-20 10:24 33.939579 -118.392309 83 115ft 22kts
13-Jun-20 10:25 33.940395 -118.384248 81 115ft 1kts
13-Jun-20 10:26 33.940397 -118.384230 81 115ft 0kts
13-Jun-20 10:27 33.939521 -118.383559 250 115ft 6kts
13-Jun-20 10:28 33.935476 -118.420344 261 1074ft 170kts
13-Jun-20 10:29 33.928761 -118.491719 265 3164ft 256kts
13-Jun-20 10:30 33.921598 -118.579064 268 6790ft 271kts
13-Jun-20 10:31 33.956124 -118.654703 328 8001ft 272kts
13-Jun-20 10:32 34.030269 -118.675317 0 8003ft 280kts
13-Jun-20 10:33 34.109979 -118.664516 8 10198ft 293kts
13-Jun-20 10:34 34.200151 -118.642998 7 12196ft 348kts
13-Jun-20 10:35 34.297726 -118.644775 344 15203ft 355kts
13-Jun-20 10:36 34.397194 -118.667590 342 18018ft 369kts
13-Jun-20 10:37 34.489430 -118.718401 325 20725ft 367kts
13-Jun-20 10:38 34.579043 -118.781859 326 23133ft 375kts
13-Jun-20 10:39 34.670628 -118.846793 326 25344ft 381kts
13-Jun-20 10:40 34.763300 -118.912567 326 27347ft 385kts
13-Jun-20 10:41 34.856028 -118.978710 327 29140ft 389kts
13-Jun-20 10:42 34.949858 -119.045842 327 30846ft 390kts
13-Jun-20 10:43 35.042256 -119.112052 327 32749ft 382kts
13-Jun-20 10:44 35.132798 -119.177076 326 34439ft 375kts
13-Jun-20 10:45 35.222565 -119.241709 326 35802ft 374kts
13-Jun-20 10:46 35.312346 -119.306444 326 36976ft 375kts
13-Jun-20 10:47 35.402588 -119.371630 326 37998ft 376kts
13-Jun-20 10:48 35.493400 -119.437449 326 38122ft 377kts
13-Jun-20 10:49 35.579471 -119.507954 320 38127ft 371kts
13-Jun-20 10:50 35.659359 -119.588637 319 38128ft 370kts
13-Jun-20 10:51 35.738343 -119.669355 318 38128ft 368kts
13-Jun-20 10:52 35.816863 -119.749920 318 38127ft 367kts
13-Jun-20 10:53 35.895120 -119.830431 318 38128ft 366kts
13-Jun-20 10:54 35.967269 -119.918451 314 38128ft 365kts
13-Jun-20 10:55 36.038268 -120.008433 314 38128ft 366kts
13-Jun-20 10:56 36.108461 -120.097491 314 38132ft 366kts
13-Jun-20 10:57 36.179721 -120.188126 314 38134ft 366kts
13-Jun-20 10:58 36.250463 -120.278324 314 38136ft 366kts
13-Jun-20 10:59 36.321250 -120.368888 314 38136ft 366kts
13-Jun-20 11:00 36.391897 -120.459452 313 38136ft 366kts
13-Jun-20 11:01 36.462719 -120.550491 314 38137ft 366kts
13-Jun-20 11:02 36.533316 -120.641537 313 38137ft 366kts
13-Jun-20 11:03 36.603266 -120.732212 313 38136ft 366kts
13-Jun-20 11:04 36.673703 -120.823631 313 38137ft 366kts
13-Jun-20 11:05 36.743870 -120.914860 313 38137ft 366kts
13-Jun-20 11:06 36.813968 -121.006196 313 38140ft 366kts
13-Jun-20 11:07 36.884389 -121.098233 313 38151ft 366kts
13-Jun-20 11:09 36.954487 -121.190125 313 38161ft 366kts
13-Jun-20 11:10 37.024568 -121.282268 313 38164ft 366kts
13-Jun-20 11:11 37.094231 -121.374139 312 38164ft 364kts
13-Jun-20 11:12 37.163693 -121.466008 312 37900ft 365kts
13-Jun-20 11:13 37.232061 -121.556728 313 36905ft 355kts
13-Jun-20 11:14 37.296529 -121.642507 313 35918ft 356kts
13-Jun-20 11:15 37.359846 -121.727138 312 33628ft 353kts
13-Jun-20 11:16 37.424420 -121.813727 313 30903ft 351kts
13-Jun-20 11:17 37.490175 -121.902093 313 28283ft 344kts
13-Jun-20 11:18 37.554771 -121.988973 313 25592ft 338kts
13-Jun-20 11:19 37.617434 -122.073569 313 22959ft 329kts
13-Jun-20 11:20 37.678178 -122.155819 311 20521ft 320kts
13-Jun-20 11:21 37.732653 -122.241485 301 18117ft 314kts
13-Jun-20 11:22 37.774983 -122.336536 298 15809ft 309kts
13-Jun-20 11:22 37.808966 -122.415151 298 15055ft 305kts
13-Jun-20 11:24 37.862397 -122.520252 322 15037ft 311kts
13-Jun-20 11:25 37.941243 -122.552840 339 15017ft 274kts
13-Jun-20 11:25 38.001720 -122.573468 338 14866ft 263kts
13-Jun-20 11:27 38.087746 -122.606427 337 10920ft 294kts
13-Jun-20 11:28 38.165508 -122.640477 339 8042ft 282kts
13-Jun-20 11:28 38.219219 -122.663934 337 8002ft 223kts
13-Jun-20 11:29 38.279431 -122.690381 338 5736ft 227kts
13-Jun-20 11:30 38.337208 -122.716556 333 3703ft 202kts
13-Jun-20 11:31 38.385131 -122.742882 334 2613ft 174kts
13-Jun-20 11:32 38.429007 -122.766534 334 1685ft 168kts
13-Jun-20 11:33 38.467027 -122.786838 334 894ft 141kts
13-Jun-20 11:34 38.502291 -122.805672 335 175ft 134kts
13-Jun-20 11:35 38.513980 -122.810350 148 122ft 12kts
13-Jun-20 11:36 38.511183 -122.808774 141 122ft 10kts
13-Jun-20 11:37 38.510107 -122.806812 67 122ft 2kts
13-Jun-20 11:38 38.510112 -122.806798 67 122ft 0kts
13-Jun-20 11:39 38.510112 -122.806798 67 122ft 0kts
13-Jun-20 11:40 38.510112 -122.806797 67 122ft 0kts

Navigation Log

Ident Type
Flight plan parsing failed, navigation log unavailable